createdAt,value
2019-01-24T08:50:17.741Z,99598.23
2019-01-24T08:55:28.110Z,99586.46
2019-01-24T09:00:32.946Z,99597.84
2019-01-24T09:05:37.748Z,99598.57
2019-01-24T09:10:42.627Z,99598.27
2019-01-24T09:15:47.471Z,99603.69
2019-01-24T09:20:52.254Z,99609.69
2019-01-24T09:25:57.042Z,99610.97
2019-01-24T09:31:01.836Z,99616.02
2019-01-24T09:36:06.611Z,99620.31
2019-01-24T09:41:11.320Z,99615.16
2019-01-24T09:46:16.053Z,99614.66
2019-01-24T09:51:20.887Z,99624.75
2019-01-24T09:56:25.662Z,99633.59
2019-01-24T10:01:30.361Z,99627.87
2019-01-24T10:06:36.312Z,99635.47
2019-01-24T10:11:41.322Z,99629.41
2019-01-24T10:16:47.066Z,99632.63
2019-01-24T10:21:51.780Z,99636.02
2019-01-24T10:26:56.599Z,99636.64
2019-01-24T10:32:01.314Z,99649.97
2019-01-24T10:37:07.114Z,99638.08
2019-01-24T10:42:11.842Z,99640.86
2019-01-24T10:47:16.631Z,99641.02
2019-01-24T10:52:21.349Z,99642.26
2019-01-24T10:57:26.058Z,99640.94
2019-01-24T11:02:30.803Z,99633.10
2019-01-24T11:07:35.509Z,99641.14
2019-01-24T11:12:40.289Z,99635.95
2019-01-24T11:17:44.984Z,99635.23
2019-01-24T11:22:50.270Z,99635.63
2019-01-24T11:27:55.059Z,99627.68
2019-01-24T11:33:00.857Z,99638.38
2019-01-24T11:38:07.161Z,99638.26
2019-01-24T11:43:11.955Z,99636.92
2019-01-24T11:48:16.673Z,99648.55
2019-01-24T11:53:21.446Z,99642.80
2019-01-24T11:58:26.243Z,99643.36
2019-01-24T12:03:31.061Z,99641.84
2019-01-24T12:08:35.823Z,99645.15
2019-01-24T12:13:40.540Z,99639.21
2019-01-24T12:18:45.284Z,99635.47
2019-01-24T12:23:50.013Z,99635.36
2019-01-24T12:28:54.730Z,99629.38
2019-01-24T12:33:59.444Z,99630.55
2019-01-24T12:39:06.669Z,99627.97
2019-01-24T12:44:11.412Z,99631.96
2019-01-24T12:49:16.127Z,99627.84
2019-01-24T12:54:21.827Z,99628.92
2019-01-24T12:59:26.781Z,99629.95
2019-01-24T13:04:31.587Z,99634.59
2019-01-24T13:09:36.301Z,99633.05
2019-01-24T13:14:41.050Z,99634.32
2019-01-24T13:19:45.875Z,99637.58
2019-01-24T13:24:50.612Z,99635.61
2019-01-24T13:29:55.437Z,99640.66
2019-01-24T13:35:00.363Z,99635.91
2019-01-24T13:40:07.596Z,99646.33
2019-01-24T13:45:14.261Z,99647.87
2019-01-24T13:50:20.154Z,99646.77
2019-01-24T13:55:24.965Z,99651.41
2019-01-24T14:00:32.339Z,99654.58
2019-01-24T14:05:37.148Z,99661.67
2019-01-24T14:10:41.947Z,99665.17
2019-01-24T14:15:46.741Z,99667.28
2019-01-24T14:20:51.697Z,99673.41
2019-01-24T14:25:56.627Z,99671.76
2019-01-24T14:31:01.462Z,99673.41
2019-01-24T14:36:06.981Z,99677.00
2019-01-24T14:41:11.984Z,99674.78
2019-01-24T14:46:16.786Z,99685.04
2019-01-24T14:51:21.989Z,99689.95
2019-01-24T14:56:26.867Z,99688.48
2019-01-24T15:01:31.668Z,99697.88
2019-01-24T15:06:36.397Z,99693.46
2019-01-24T15:11:41.737Z,99691.36
2019-01-24T15:16:46.719Z,99704.70
2019-01-24T15:21:51.827Z,99714.28
2019-01-24T15:26:57.184Z,99724.09
2019-01-24T15:32:02.287Z,99719.56
2019-01-24T15:37:07.180Z,99716.35
2019-01-24T15:42:12.447Z,99721.14
2019-01-24T15:47:19.930Z,99729.98
2019-01-24T15:52:26.116Z,99734.07
2019-01-24T15:57:31.552Z,99742.64
2019-01-24T16:02:36.821Z,99747.17
2019-01-24T16:07:42.350Z,99752.58
2019-01-24T16:12:47.888Z,99753.98
2019-01-24T16:17:53.527Z,99764.27
2019-01-24T16:22:59.148Z,99769.61
2019-01-24T16:28:04.582Z,99769.61
2019-01-24T16:33:10.853Z,99779.00
2019-01-24T16:38:16.535Z,99781.29
2019-01-24T16:43:23.346Z,99783.53
2019-01-24T16:48:29.591Z,99782.88
2019-01-24T16:53:34.999Z,99788.77
2019-01-24T16:58:40.730Z,99798.79
2019-01-24T17:03:46.113Z,99796.15
2019-01-24T17:08:52.608Z,99798.73
2019-01-24T17:13:57.946Z,99792.81
2019-01-24T17:19:03.465Z,99800.55
2019-01-24T17:24:08.998Z,99796.61
2019-01-24T17:29:14.383Z,99794.86
2019-01-24T17:34:20.266Z,99801.11
2019-01-24T17:39:26.136Z,99800.73
2019-01-24T17:44:31.914Z,99797.60
2019-01-24T17:49:37.357Z,99791.80
2019-01-24T17:54:43.143Z,99801.84
2019-01-24T17:59:49.936Z,99802.58
2019-01-24T18:04:55.242Z,99812.61
2019-01-24T18:10:13.898Z,99817.22
2019-01-24T18:15:26.979Z,99820.43
2019-01-24T18:20:34.399Z,99812.69
2019-01-24T18:25:43.102Z,99816.30
2019-01-24T18:30:49.658Z,99829.27
2019-01-24T18:35:59.732Z,99837.39
2019-01-24T18:41:08.679Z,99839.23
2019-01-24T18:46:13.750Z,99849.25
2019-01-24T18:51:20.165Z,99850.55
2019-01-24T18:56:26.194Z,99872.25
2019-01-24T19:01:33.173Z,99874.91
2019-01-24T19:06:39.964Z,99875.35
2019-01-24T19:11:46.642Z,99880.06
2019-01-24T19:16:53.466Z,99887.22
2019-01-24T19:22:00.545Z,99886.77
2019-01-24T19:27:07.843Z,99895.89
2019-01-24T19:32:14.122Z,99886.44
2019-01-24T19:37:20.378Z,99886.80
2019-01-24T19:42:27.101Z,99892.75
2019-01-24T19:47:34.095Z,99890.10
2019-01-24T19:52:41.000Z,99897.02
2019-01-24T19:57:47.781Z,99902.61
2019-01-24T20:02:54.896Z,99908.98
2019-01-24T20:08:01.282Z,99918.00
2019-01-24T20:13:08.286Z,99912.77
2019-01-24T20:18:14.314Z,99918.67
2019-01-24T20:23:21.006Z,99924.20
2019-01-24T20:28:27.700Z,99922.61
2019-01-24T20:33:33.702Z,99926.41
2019-01-24T20:38:39.334Z,99933.13
2019-01-24T20:43:45.843Z,99940.95
2019-01-24T20:48:52.243Z,99936.52
2019-01-24T20:53:58.530Z,99940.58
2019-01-24T20:59:04.099Z,99942.04
2019-01-24T21:04:09.944Z,99942.61
2019-01-24T21:09:15.505Z,99944.17
2019-01-24T21:14:21.376Z,99948.48
2019-01-24T21:19:27.007Z,99940.58
2019-01-24T21:24:31.858Z,99945.63
2019-01-24T21:29:37.151Z,99949.06
2019-01-24T21:34:42.453Z,99938.75
2019-01-24T21:39:47.530Z,99949.84
2019-01-24T21:44:52.885Z,99948.55
2019-01-24T21:49:58.176Z,99953.27
2019-01-24T21:55:03.347Z,99954.72
2019-01-24T22:00:09.787Z,99950.22
2019-01-24T22:05:14.666Z,99950.86
2019-01-24T22:10:25.273Z,99949.30
2019-01-24T22:15:30.471Z,99951.98
2019-01-24T22:20:35.243Z,99949.84
2019-01-24T22:25:39.953Z,99959.73
2019-01-24T22:30:51.469Z,99953.88
2019-01-24T22:35:56.161Z,99955.16
2019-01-24T22:41:00.871Z,99951.12
2019-01-24T22:46:06.252Z,99946.25
2019-01-24T22:51:11.048Z,99950.14
2019-01-24T22:56:15.759Z,99947.73
2019-01-24T23:01:46.725Z,99949.30
2019-01-24T23:06:51.580Z,99942.48
2019-01-24T23:11:57.245Z,99942.11
2019-01-24T23:17:03.239Z,99947.02
2019-01-24T23:22:08.026Z,99943.60
2019-01-24T23:27:12.745Z,99940.21
2019-01-24T23:32:17.521Z,99941.30
2019-01-24T23:37:22.294Z,99933.36
2019-01-24T23:42:27.944Z,99929.66
2019-01-24T23:47:32.733Z,99929.66
2019-01-24T23:52:37.415Z,99939.19
2019-01-24T23:57:42.125Z,99939.63
